createdAt,value
2019-05-10T00:00:44.676Z,99.90
2019-05-10T00:03:38.409Z,99.90
2019-05-10T00:06:25.567Z,99.90
2019-05-10T00:09:01.070Z,99.90
2019-05-10T00:11:49.431Z,99.90
2019-05-10T00:14:42.404Z,99.90
2019-05-10T00:17:13.706Z,99.90
2019-05-10T00:19:49.629Z,99.90
2019-05-10T00:22:19.474Z,99.90
2019-05-10T00:25:02.358Z,99.90
2019-05-10T00:27:27.265Z,99.90
2019-05-10T00:29:57.004Z,99.90
2019-05-10T00:32:33.124Z,99.90
2019-05-10T00:35:09.026Z,99.90
2019-05-10T00:37:38.763Z,99.90
2019-05-10T00:40:15.846Z,99.90
2019-05-10T00:42:51.642Z,99.90
2019-05-10T00:45:28.120Z,99.90
2019-05-10T00:48:04.610Z,99.90
2019-05-10T00:50:34.270Z,99.90
2019-05-10T00:53:10.829Z,99.90
2019-05-10T00:55:46.401Z,99.90
2019-05-10T00:58:28.565Z,99.90
2019-05-10T01:00:58.189Z,99.90
2019-05-10T01:03:34.208Z,99.90
2019-05-10T01:06:03.928Z,99.90
2019-05-10T01:08:40.438Z,99.90
2019-05-10T01:11:09.956Z,99.90
2019-05-10T01:13:45.933Z,99.90
2019-05-10T01:16:15.617Z,99.90
2019-05-10T01:18:51.874Z,99.90
2019-05-10T01:21:21.538Z,99.90
2019-05-10T01:23:58.041Z,99.90
2019-05-10T01:26:34.684Z,99.90
2019-05-10T01:29:11.346Z,99.90
2019-05-10T01:31:40.930Z,99.90
2019-05-10T01:34:17.647Z,99.90
2019-05-10T01:36:47.165Z,99.90
2019-05-10T01:39:16.758Z,99.90
2019-05-10T01:41:52.741Z,99.90
2019-05-10T01:44:28.834Z,99.90
2019-05-10T01:47:05.109Z,99.90
2019-05-10T01:49:41.071Z,99.90
2019-05-10T01:52:17.069Z,99.90
2019-05-10T01:54:53.847Z,99.90
2019-05-10T01:57:36.876Z,99.90
2019-05-10T02:00:11.259Z,99.90
2019-05-10T02:02:47.447Z,99.90
2019-05-10T02:05:17.501Z,99.90
2019-05-10T02:07:53.744Z,99.90
2019-05-10T02:10:23.709Z,99.90
2019-05-10T02:13:00.589Z,99.90
2019-05-10T02:15:36.388Z,99.90
2019-05-10T02:18:19.793Z,99.90
2019-05-10T02:20:49.452Z,99.90
2019-05-10T02:23:25.886Z,99.90
2019-05-10T02:26:09.095Z,99.90
2019-05-10T02:28:40.200Z,99.90
2019-05-10T02:31:21.265Z,99.90
2019-05-10T02:33:48.063Z,99.90
2019-05-10T02:36:30.035Z,99.90
2019-05-10T02:38:59.664Z,99.90
2019-05-10T02:41:36.407Z,99.90
2019-05-10T02:44:06.050Z,99.90
2019-05-10T02:46:42.001Z,99.90
2019-05-10T02:49:11.586Z,99.90
2019-05-10T02:51:53.346Z,99.90
2019-05-10T02:54:23.006Z,99.90
2019-05-10T02:57:01.287Z,99.90
2019-05-10T02:59:45.584Z,99.90
2019-05-10T03:02:16.548Z,99.90
2019-05-10T03:04:47.409Z,99.90
2019-05-10T03:07:26.434Z,99.90
2019-05-10T03:09:56.036Z,99.90
2019-05-10T03:12:33.623Z,99.90
2019-05-10T03:15:12.953Z,99.90
2019-05-10T03:17:49.614Z,99.90
2019-05-10T03:20:19.279Z,99.90
2019-05-10T03:22:56.225Z,99.90
2019-05-10T03:25:32.012Z,99.90
2019-05-10T03:28:07.790Z,99.90
2019-05-10T03:30:44.587Z,99.90
2019-05-10T03:33:14.174Z,99.90
2019-05-10T03:35:43.831Z,99.90
2019-05-10T03:38:19.820Z,99.90
2019-05-10T03:40:56.390Z,99.90
2019-05-10T03:43:25.986Z,99.90
2019-05-10T03:46:03.048Z,99.90
2019-05-10T03:48:39.593Z,99.90
2019-05-10T03:51:16.193Z,99.90
2019-05-10T03:53:45.710Z,99.90
2019-05-10T03:56:22.196Z,99.90
2019-05-10T03:58:58.591Z,99.90
2019-05-10T04:01:41.161Z,99.90
2019-05-10T04:04:10.750Z,99.90
2019-05-10T04:06:46.463Z,99.90
2019-05-10T04:09:16.082Z,99.90
2019-05-10T04:11:51.810Z,99.90
2019-05-10T04:14:21.414Z,99.90
2019-05-10T04:16:57.024Z,99.90
2019-05-10T04:19:26.612Z,99.90
2019-05-10T04:22:02.569Z,99.90
2019-05-10T04:24:38.344Z,99.90
2019-05-10T04:27:30.688Z,99.90
2019-05-10T04:29:52.830Z,99.90
2019-05-10T04:32:28.727Z,99.90
2019-05-10T04:35:04.608Z,99.90
2019-05-10T04:37:34.118Z,99.90
2019-05-10T04:40:11.383Z,99.90
2019-05-10T04:42:41.042Z,99.90
2019-05-10T04:45:17.826Z,99.90
2019-05-10T04:48:00.991Z,99.90
2019-05-10T04:50:36.743Z,99.90
2019-05-10T04:53:06.335Z,99.90
2019-05-10T04:55:37.094Z,99.90
2019-05-10T04:58:13.107Z,99.90
2019-05-10T05:00:49.207Z,99.90
2019-05-10T05:03:25.572Z,99.90
2019-05-10T05:05:55.221Z,99.90
2019-05-10T05:08:31.913Z,99.90
2019-05-10T05:11:08.549Z,99.90
2019-05-10T05:13:45.305Z,99.90
2019-05-10T05:16:21.908Z,99.90
2019-05-10T05:18:51.518Z,99.90
2019-05-10T05:21:27.330Z,99.90
2019-05-10T05:23:56.851Z,99.90
2019-05-10T05:26:32.639Z,99.90
2019-05-10T05:29:08.319Z,99.90
2019-05-10T05:31:44.060Z,99.90
2019-05-10T05:34:19.996Z,99.90
2019-05-10T05:36:55.638Z,99.90
2019-05-10T05:39:31.803Z,99.90
2019-05-10T05:42:16.639Z,99.90
2019-05-10T05:44:46.174Z,99.90
2019-05-10T05:47:22.094Z,99.90
2019-05-10T05:49:51.763Z,99.90
2019-05-10T05:52:28.281Z,99.90
2019-05-10T05:54:59.254Z,99.90
2019-05-10T05:57:35.886Z,99.90
2019-05-10T06:00:12.720Z,99.90
2019-05-10T06:02:49.393Z,99.90
2019-05-10T06:05:32.268Z,99.90
2019-05-10T06:07:52.302Z,99.90
2019-05-10T06:10:27.922Z,99.90
2019-05-10T06:12:57.625Z,99.90
2019-05-10T06:15:34.252Z,99.90
2019-05-10T06:18:09.499Z,99.90
2019-05-10T06:20:38.135Z,99.90
2019-05-10T06:23:13.821Z,99.90
2019-05-10T06:25:43.523Z,99.90
2019-05-10T06:28:27.065Z,99.90
2019-05-10T06:30:51.519Z,99.90
2019-05-10T06:33:27.467Z,99.90
2019-05-10T06:35:57.073Z,99.90
2019-05-10T06:38:34.076Z,99.90
2019-05-10T06:41:17.090Z,99.90
2019-05-10T06:43:45.683Z,99.90
2019-05-10T06:46:23.736Z,99.90
2019-05-10T06:49:07.656Z,99.90
2019-05-10T06:51:36.659Z,99.90
2019-05-10T06:54:06.327Z,99.90
2019-05-10T06:56:43.072Z,99.90
2019-05-10T06:59:26.361Z,99.90
2019-05-10T07:02:01.880Z,99.90
2019-05-10T07:04:44.451Z,99.90
2019-05-10T07:07:22.358Z,99.90
2019-05-10T07:10:15.763Z,99.70
2019-05-10T07:12:23.791Z,99.50
2019-05-10T07:15:03.329Z,99.50
2019-05-10T07:17:30.925Z,99.90
2019-05-10T07:20:06.980Z,99.70
2019-05-10T07:22:36.647Z,99.30
2019-05-10T07:25:14.609Z,99.50
2019-05-10T07:27:44.357Z,99.50
2019-05-10T07:30:15.568Z,98.90
2019-05-10T07:32:54.663Z,99.10
2019-05-10T07:35:22.695Z,99.30
2019-05-10T07:37:59.434Z,98.90
2019-05-10T07:40:36.098Z,99.10
2019-05-10T07:43:05.755Z,98.90
2019-05-10T07:45:42.560Z,98.50
2019-05-10T07:48:12.233Z,98.50
2019-05-10T07:50:54.239Z,98.40
2019-05-10T07:53:31.907Z,98.60
2019-05-10T07:56:08.090Z,98.30
2019-05-10T07:58:43.057Z,98.70
2019-05-10T08:01:32.479Z,98.60
2019-05-10T08:04:00.271Z,98.80
2019-05-10T08:06:43.407Z,98.90
2019-05-10T08:09:16.953Z,98.80
2019-05-10T08:11:59.860Z,98.80
2019-05-10T08:14:25.804Z,98.80
2019-05-10T08:16:58.553Z,98.40
2019-05-10T08:19:37.593Z,98.60
2019-05-10T08:22:05.484Z,98.50
2019-05-10T08:24:46.410Z,98.40
2019-05-10T08:27:14.868Z,98.40
2019-05-10T08:30:15.839Z,98.30
2019-05-10T08:32:25.503Z,98.40
2019-05-10T08:34:59.975Z,98.30
2019-05-10T08:37:37.020Z,98.50
2019-05-10T08:40:19.589Z,98.30
2019-05-10T08:43:02.343Z,98.30
2019-05-10T08:45:32.501Z,98.20
2019-05-10T08:48:06.835Z,98.00
2019-05-10T08:50:49.244Z,97.80
2019-05-10T08:53:18.297Z,97.60
2019-05-10T08:55:58.510Z,97.70
2019-05-10T08:58:37.077Z,97.70
2019-05-10T09:01:16.479Z,97.70
2019-05-10T09:03:55.614Z,97.80
2019-05-10T09:06:27.474Z,97.10
2019-05-10T09:09:07.925Z,97.40
2019-05-10T09:11:34.812Z,97.40
2019-05-10T09:14:04.484Z,97.20
2019-05-10T09:16:46.202Z,97.40
2019-05-10T09:19:12.606Z,97.50
2019-05-10T09:21:49.331Z,97.20
2019-05-10T09:24:19.682Z,96.70
2019-05-10T09:26:54.826Z,96.80
2019-05-10T09:29:35.098Z,96.60
2019-05-10T09:32:01.256Z,96.50
2019-05-10T09:34:36.850Z,96.20
2019-05-10T09:37:16.734Z,96.60
2019-05-10T09:39:44.199Z,96.80
2019-05-10T09:42:26.757Z,96.30
2019-05-10T09:44:52.741Z,95.50
2019-05-10T09:47:22.382Z,95.60
2019-05-10T09:49:59.093Z,95.70
2019-05-10T09:52:35.513Z,95.20
2019-05-10T09:55:17.521Z,95.40
2019-05-10T09:57:48.011Z,95.10
2019-05-10T10:00:27.093Z,95.00
2019-05-10T10:03:04.631Z,94.90
2019-05-10T10:05:40.895Z,94.80
2019-05-10T10:08:17.632Z,95.10
2019-05-10T10:11:01.228Z,94.40
2019-05-10T10:13:39.602Z,94.40
2019-05-10T10:16:04.085Z,95.20
2019-05-10T10:18:36.941Z,94.40
2019-05-10T10:21:06.245Z,94.70
2019-05-10T10:23:41.979Z,94.10
2019-05-10T10:26:22.401Z,93.50
2019-05-10T10:28:55.285Z,93.70
2019-05-10T10:31:33.132Z,93.40
2019-05-10T10:34:02.690Z,93.70
2019-05-10T10:36:42.643Z,93.40
2019-05-10T10:39:10.002Z,93.40
2019-05-10T10:41:48.070Z,94.10
2019-05-10T10:44:18.156Z,94.50
2019-05-10T10:46:48.235Z,94.50
2019-05-10T10:49:30.236Z,93.60
2019-05-10T10:52:05.692Z,93.30
2019-05-10T10:54:39.908Z,93.60
2019-05-10T10:57:09.579Z,93.10
2019-05-10T10:59:47.442Z,92.70
2019-05-10T11:02:31.329Z,92.10
2019-05-10T11:04:55.536Z,92.30
2019-05-10T11:07:33.829Z,91.50
2019-05-10T11:10:18.013Z,92.00
2019-05-10T11:12:47.755Z,92.40
2019-05-10T11:15:28.227Z,91.90
2019-05-10T11:17:57.234Z,91.70
2019-05-10T11:20:33.831Z,92.00
2019-05-10T11:23:03.428Z,91.40
2019-05-10T11:25:42.681Z,90.80
2019-05-10T11:28:20.536Z,90.40
2019-05-10T11:30:56.820Z,90.20
2019-05-10T11:33:33.652Z,90.70
2019-05-10T11:36:08.447Z,90.10
2019-05-10T11:38:53.497Z,89.50
2019-05-10T11:41:23.774Z,88.60
2019-05-10T11:43:57.779Z,89.80
2019-05-10T11:46:33.853Z,90.70
2019-05-10T11:49:03.368Z,89.80
2019-05-10T11:51:33.041Z,87.40
2019-05-10T11:54:11.159Z,86.70
2019-05-10T11:56:46.563Z,87.10
2019-05-10T11:59:27.325Z,88.10
2019-05-10T12:02:02.878Z,88.30
2019-05-10T12:04:38.931Z,88.50
2019-05-10T12:07:27.472Z,88.90
2019-05-10T12:10:13.860Z,89.40
2019-05-10T12:12:54.029Z,88.80
2019-05-10T12:15:13.885Z,88.40
2019-05-10T12:20:26.831Z,86.80
2019-05-10T12:22:52.973Z,85.30
2019-05-10T12:26:16.201Z,84.70
2019-05-10T12:26:31.279Z,88.60
2019-05-10T12:28:24.652Z,83.30
2019-05-10T12:31:07.544Z,85.20
2019-05-10T12:33:34.465Z,85.60
2019-05-10T12:36:22.379Z,83.70
2019-05-10T12:38:41.670Z,82.50
2019-05-10T12:41:17.784Z,82.40
2019-05-10T12:43:48.578Z,81.60
2019-05-10T12:46:25.533Z,81.70
2019-05-10T12:48:55.115Z,81.40
2019-05-10T12:51:31.739Z,81.80
2019-05-10T12:54:08.331Z,82.00
2019-05-10T12:56:46.086Z,82.30
2019-05-10T12:59:22.437Z,81.10
2019-05-10T13:02:11.106Z,81.30
2019-05-10T13:04:40.591Z,81.70
2019-05-10T13:07:21.270Z,81.70
2019-05-10T13:10:02.641Z,81.10
2019-05-10T13:12:28.595Z,81.70
2019-05-10T13:15:04.339Z,80.40
2019-05-10T13:17:44.177Z,82.80
2019-05-10T13:20:11.917Z,82.00
2019-05-10T13:22:47.729Z,80.50
2019-05-10T13:25:24.260Z,79.70
2019-05-10T13:27:53.864Z,80.70
2019-05-10T13:30:30.601Z,80.00
2019-05-10T13:33:06.853Z,80.70
2019-05-10T13:35:43.160Z,81.70
2019-05-10T13:38:12.760Z,82.00
2019-05-10T13:40:45.943Z,82.60
2019-05-10T13:43:26.572Z,82.20
2019-05-10T13:45:57.988Z,80.70
2019-05-10T13:48:27.567Z,80.70
2019-05-10T13:50:57.245Z,80.80
2019-05-10T13:53:33.183Z,79.50
2019-05-10T13:56:02.848Z,79.90
2019-05-10T13:58:46.536Z,79.90
2019-05-10T14:01:16.220Z,80.30
2019-05-10T14:03:59.899Z,81.10
2019-05-10T14:06:29.872Z,80.40
2019-05-10T14:09:12.798Z,81.60
2019-05-10T14:11:46.650Z,82.60
2019-05-10T14:14:26.274Z,82.60
2019-05-10T14:16:52.249Z,82.00
2019-05-10T14:19:23.396Z,80.70
2019-05-10T14:21:59.979Z,80.60
2019-05-10T14:24:29.647Z,80.20
2019-05-10T14:27:05.341Z,80.00
2019-05-10T14:29:36.890Z,80.70
2019-05-10T14:32:12.631Z,79.80
2019-05-10T14:34:49.087Z,77.60
2019-05-10T14:37:20.010Z,78.90
2019-05-10T14:39:56.475Z,78.10
2019-05-10T14:42:31.079Z,76.60
2019-05-10T14:45:04.424Z,77.10
2019-05-10T14:47:46.778Z,76.20
2019-05-10T14:50:19.404Z,76.50
2019-05-10T14:52:52.030Z,75.90
2019-05-10T14:55:34.622Z,76.40
2019-05-10T14:57:59.932Z,76.60
2019-05-10T15:00:36.190Z,76.80
2019-05-10T15:03:12.621Z,76.50
2019-05-10T15:05:42.231Z,76.50
2019-05-10T15:08:25.356Z,77.10
2019-05-10T15:11:02.002Z,76.80
2019-05-10T15:13:38.785Z,77.30
2019-05-10T15:16:26.332Z,77.00
2019-05-10T15:18:45.892Z,76.80
2019-05-10T15:21:22.746Z,77.00
2019-05-10T15:23:55.256Z,77.50
2019-05-10T15:26:37.500Z,78.50
2019-05-10T15:29:15.184Z,78.20
2019-05-10T16:18:55.423Z,89.50
2019-05-10T16:21:31.353Z,90.00
2019-05-10T16:24:00.977Z,90.40
2019-05-10T16:26:37.791Z,89.60
2019-05-10T16:29:14.516Z,89.50
2019-05-10T16:31:44.215Z,89.30
2019-05-10T16:34:20.151Z,89.30
2019-05-10T16:36:56.828Z,88.90
2019-05-10T16:39:26.499Z,88.90
2019-05-10T16:42:02.338Z,90.30
2019-05-10T16:44:38.539Z,90.00
2019-05-10T16:47:14.460Z,89.80
2019-05-10T16:49:53.346Z,90.00
2019-05-10T16:52:28.717Z,90.40
2019-05-10T16:55:05.597Z,90.90
2019-05-10T16:57:37.262Z,91.60
2019-05-10T17:00:16.375Z,92.20
2019-05-10T17:02:52.253Z,93.20
2019-05-10T17:05:21.990Z,94.40
2019-05-10T17:07:59.138Z,95.30
2019-05-10T17:10:32.990Z,96.00
2019-05-10T17:13:08.063Z,96.80
2019-05-10T17:15:39.693Z,98.40
2019-05-10T17:18:19.912Z,99.10
2019-05-10T17:20:50.734Z,99.30
2019-05-10T17:23:18.872Z,99.90
2019-05-10T17:25:55.243Z,99.90
2019-05-10T17:28:29.622Z,99.90
2019-05-10T17:31:07.930Z,99.90
2019-05-10T17:33:42.687Z,99.90
2019-05-10T17:36:14.545Z,99.90
2019-05-10T17:38:53.358Z,99.90
2019-05-10T17:41:24.708Z,99.90
2019-05-10T17:44:06.963Z,99.90
2019-05-10T17:46:36.966Z,99.90
2019-05-10T17:49:13.204Z,99.90
2019-05-10T17:51:42.921Z,99.90
2019-05-10T17:54:25.202Z,99.90
2019-05-10T17:56:55.016Z,99.90
2019-05-10T17:59:31.007Z,99.90
2019-05-10T18:02:09.819Z,99.90
2019-05-10T18:04:39.467Z,99.90
2019-05-10T18:07:15.973Z,99.90
2019-05-10T18:09:45.719Z,99.90
2019-05-10T18:12:19.806Z,99.90
2019-05-10T18:14:55.751Z,99.90
2019-05-10T18:17:27.435Z,99.90
2019-05-10T18:20:03.952Z,99.90
2019-05-10T18:22:42.212Z,99.90
2019-05-10T18:25:19.574Z,99.90
2019-05-10T18:27:43.800Z,99.90
2019-05-10T18:30:21.363Z,99.90
2019-05-10T18:32:57.870Z,99.90
2019-05-10T18:35:33.658Z,99.90
2019-05-10T18:38:10.338Z,99.90
2019-05-10T18:40:40.009Z,99.90
2019-05-10T18:43:15.980Z,99.90
2019-05-10T18:45:45.752Z,99.90
2019-05-10T18:48:22.391Z,99.90
2019-05-10T18:50:58.934Z,99.90
2019-05-10T18:53:35.111Z,99.90
2019-05-10T18:56:11.842Z,99.90
2019-05-10T18:58:41.443Z,99.90
2019-05-10T19:36:14.375Z,99.90
2019-05-10T19:38:43.897Z,99.90
2019-05-10T19:41:20.081Z,99.90
2019-05-10T19:43:55.924Z,99.90
2019-05-10T19:46:39.232Z,99.90
2019-05-10T19:49:13.058Z,99.90
2019-05-10T19:51:48.846Z,99.90
2019-05-10T19:54:21.082Z,99.90
2019-05-10T19:57:00.081Z,99.90
2019-05-10T19:59:29.775Z,99.90
2019-05-10T20:02:12.744Z,99.90
2019-05-10T20:04:42.415Z,99.90
2019-05-10T20:07:18.217Z,99.90
2019-05-10T20:09:48.030Z,99.90
2019-05-10T20:12:24.557Z,99.90
2019-05-10T20:14:54.295Z,99.90
2019-05-10T20:18:26.871Z,99.90
2019-05-10T20:21:02.775Z,99.90
2019-05-10T20:23:34.211Z,99.90
2019-05-10T20:26:12.171Z,99.90
2019-05-10T20:28:44.060Z,99.90
2019-05-10T20:31:20.226Z,99.90
2019-05-10T20:33:50.006Z,99.90
2019-05-10T20:36:33.423Z,99.90
2019-05-10T20:39:09.889Z,99.90
2019-05-10T20:41:52.490Z,99.90
2019-05-10T20:44:28.909Z,99.90
2019-05-10T20:47:11.943Z,99.90
2019-05-10T20:49:48.515Z,99.90
2019-05-10T20:52:31.846Z,99.90
2019-05-10T20:55:15.431Z,99.90
2019-05-10T20:57:51.751Z,99.90
2019-05-10T21:00:33.577Z,99.90
2019-05-10T21:03:16.114Z,99.90
2019-05-10T21:05:58.707Z,99.90
2019-05-10T21:08:28.240Z,99.90
2019-05-10T21:11:11.138Z,99.90
2019-05-10T21:13:57.780Z,99.90
2019-05-10T21:16:32.140Z,99.90
2019-05-10T21:19:08.533Z,99.90
2019-05-10T21:21:43.993Z,99.90
2019-05-10T21:24:19.903Z,99.90
2019-05-10T21:26:56.381Z,99.90
2019-05-10T21:29:39.211Z,99.90
2019-05-10T21:32:15.670Z,99.90
2019-05-10T21:37:59.448Z,99.90
2019-05-10T21:40:35.416Z,99.90
2019-05-10T21:43:18.174Z,99.90
2019-05-10T21:45:54.640Z,99.90
2019-05-10T21:48:37.615Z,99.90
2019-05-10T21:51:13.734Z,99.90
2019-05-10T21:53:56.734Z,99.90
2019-05-10T21:56:39.143Z,99.90
2019-05-10T21:59:15.050Z,99.90
2019-05-10T22:01:50.958Z,99.90
2019-05-10T22:04:26.975Z,99.90
2019-05-10T22:07:03.457Z,99.90
2019-05-10T22:09:46.179Z,99.90
2019-05-10T22:12:22.544Z,99.90
2019-05-10T22:15:05.156Z,99.90
2019-05-10T22:17:41.211Z,99.90
2019-05-10T22:20:24.259Z,99.90
2019-05-10T22:23:00.339Z,99.90
2019-05-10T22:25:36.223Z,99.90
2019-05-10T22:28:11.929Z,99.90
2019-05-10T22:30:48.429Z,99.90
2019-05-10T22:33:30.770Z,99.90
2019-05-10T22:36:07.002Z,99.90
2019-05-10T22:39:04.551Z,99.90
2019-05-10T22:41:27.633Z,99.90
2019-05-10T22:44:09.804Z,99.90
2019-05-10T22:46:46.219Z,99.90
2019-05-10T22:49:28.827Z,99.90
2019-05-10T22:52:04.987Z,99.90
2019-05-10T22:54:47.495Z,99.90
2019-05-10T22:57:30.240Z,99.90
2019-05-10T23:00:09.390Z,99.90
2019-05-10T23:02:45.813Z,99.90
2019-05-10T23:05:22.401Z,99.90
2019-05-10T23:07:58.434Z,99.90
2019-05-10T23:10:41.104Z,99.90
2019-05-10T23:13:17.050Z,99.90
2019-05-10T23:15:53.222Z,99.90
2019-05-10T23:18:36.298Z,99.90
2019-05-10T23:21:12.225Z,99.90
2019-05-10T23:23:48.417Z,99.90
2019-05-10T23:26:24.122Z,99.90
2019-05-10T23:29:06.844Z,99.90
2019-05-10T23:31:42.534Z,99.90
2019-05-10T23:34:25.000Z,99.90
2019-05-10T23:37:16.273Z,99.90
2019-05-10T23:39:52.227Z,99.90
2019-05-10T23:42:28.110Z,99.90
2019-05-10T23:45:10.581Z,99.90
2019-05-10T23:47:46.131Z,99.90
2019-05-10T23:50:28.683Z,99.90
2019-05-10T23:53:05.032Z,99.90
2019-05-10T23:55:47.984Z,99.90
2019-05-10T23:58:23.683Z,99.90
